Time;durP1;ratioP1;P1;durP2;ratioP2;P2;SDS_P1;SDS_P2;PMS_P1;PMS_P2;Temp;Humidity;BMP_temperature;BMP_pressure;BME280_temperature;BME280_humidity;BME280_pressure;Samples;Min_cycle;Max_cycle;Signal;HPM_P1;HPM_P2
2022/02/10 00:03:53;;;;;;;20.77;17.13;;;;;;;;;;2046014;29;20230;-53
2022/02/10 00:16:49;;;;;;;23.05;17.10;;;;;;;;;;2049800;28;20266;-59
2022/02/10 00:18:03;;;;;;;19.63;17.15;;;;;;;;;;2048420;29;20230;-55
2022/02/10 00:19:32;;;;;;;19.55;17.48;;;;;;;;;;2041806;29;20164;-55
2022/02/10 00:20:41;;;;;;;22.45;17.58;;;;;;;;;;2047883;28;20198;-57
2022/02/10 00:24:31;;;;;;;20.45;17.02;;;;;;;;;;2049131;28;20181;-60
2022/02/10 00:34:12;;;;;;;19.55;15.80;;;;;;;;;;2048786;28;20218;-56
2022/02/10 00:34:40;;;;;;;18.30;15.80;;;;;;;;;;2041573;29;20179;-58
2022/02/10 00:36:59;;;;;;;20.65;16.15;;;;;;;;;;2049603;28;20243;-60
2022/02/10 00:37:59;;;;;;;22.70;17.92;;;;;;;;;;2046448;28;20274;-59
2022/02/10 00:39:14;;;;;;;18.63;15.73;;;;;;;;;;2048823;28;20536;-58
2022/02/10 00:40:17;;;;;;;18.70;16.00;;;;;;;;;;2043893;29;20664;-58
2022/02/10 00:41:18;;;;;;;19.67;15.50;;;;;;;;;;2041677;29;20190;-56
2022/02/10 00:42:18;;;;;;;18.77;16.00;;;;;;;;;;2047017;29;20175;-55
2022/02/10 00:43:18;;;;;;;17.13;15.32;;;;;;;;;;2046101;29;20230;-59
2022/02/10 00:44:19;;;;;;;18.90;15.73;;;;;;;;;;2048674;29;20266;-57
2022/02/10 00:45:20;;;;;;;19.80;16.20;;;;;;;;;;2047805;29;20644;-59
2022/02/10 00:46:21;;;;;;;18.33;15.52;;;;;;;;;;2046494;28;20218;-55
2022/02/10 00:47:21;;;;;;;20.27;15.07;;;;;;;;;;2041556;29;20633;-55
2022/02/10 00:48:21;;;;;;;18.98;16.33;;;;;;;;;;2045981;29;20186;-59
2022/02/10 00:49:21;;;;;;;18.50;16.00;;;;;;;;;;2043771;29;20180;-59
2022/02/10 00:50:23;;;;;;;18.33;15.90;;;;;;;;;;2047179;28;20207;-57
2022/02/10 00:51:23;;;;;;;19.50;15.90;;;;;;;;;;2045530;28;20211;-57
2022/02/10 00:52:24;;;;;;;18.60;16.38;;;;;;;;;;2041449;29;20187;-59
2022/02/10 00:53:30;;;;;;;19.65;17.10;;;;;;;;;;2047547;29;20182;-54
2022/02/10 00:54:31;;;;;;;18.92;15.90;;;;;;;;;;2048476;28;20262;-55
2022/02/10 00:55:34;;;;;;;18.52;16.20;;;;;;;;;;2048695;28;20548;-57
2022/02/10 00:56:34;;;;;;;17.90;15.75;;;;;;;;;;2049055;28;20492;-59
2022/02/10 00:57:34;;;;;;;22.13;18.23;;;;;;;;;;2049459;28;20234;-55
2022/02/10 00:58:37;;;;;;;21.10;16.67;;;;;;;;;;2049108;28;20175;-57
2022/02/10 01:00:08;;;;;;;19.65;16.80;;;;;;;;;;2049157;28;20206;-56
2022/02/10 01:12:53;;;;;;;17.55;14.75;;;;;;;;;;2048415;29;20155;-57
2022/02/10 01:14:04;;;;;;;18.25;15.02;;;;;;;;;;2049117;28;20179;-54
2022/02/10 01:30:18;;;;;;;15.48;13.88;;;;;;;;;;2049034;28;20167;-57
2022/02/10 01:31:19;;;;;;;20.52;15.77;;;;;;;;;;2049216;28;20206;-58
2022/02/10 01:32:19;;;;;;;17.58;14.90;;;;;;;;;;2049021;28;20185;-59
2022/02/10 01:33:20;;;;;;;21.60;15.77;;;;;;;;;;2049461;28;20175;-53
2022/02/10 01:34:21;;;;;;;17.00;14.68;;;;;;;;;;2049375;28;20171;-58
2022/02/10 01:35:23;;;;;;;17.90;14.82;;;;;;;;;;2049055;28;20190;-57
2022/02/10 01:36:24;;;;;;;17.90;15.40;;;;;;;;;;2049329;28;20226;-57
2022/02/10 01:37:24;;;;;;;20.65;15.00;;;;;;;;;;2049303;28;20198;-57
2022/02/10 01:38:24;;;;;;;19.85;14.52;;;;;;;;;;2047076;28;20175;-59
2022/02/10 01:39:30;;;;;;;17.17;14.00;;;;;;;;;;2043816;29;20713;-58
2022/02/10 01:41:04;;;;;;;16.23;13.82;;;;;;;;;;2046437;28;20198;-56
2022/02/10 02:03:29;;;;;;;18.98;15.40;;;;;;;;;;2043688;28;20656;-54
2022/02/10 02:04:29;;;;;;;18.52;16.52;;;;;;;;;;2041124;29;20183;-57
2022/02/10 02:05:37;;;;;;;20.08;16.40;;;;;;;;;;2044684;29;20171;-58
2022/02/10 02:06:44;;;;;;;19.45;15.75;;;;;;;;;;2048634;28;20167;-53
2022/02/10 02:07:44;;;;;;;21.05;15.35;;;;;;;;;;2047980;29;20266;-60
2022/02/10 02:08:44;;;;;;;20.38;16.40;;;;;;;;;;2041816;28;20167;-58
2022/02/10 02:09:45;;;;;;;22.13;16.35;;;;;;;;;;2041315;29;20202;-59
2022/02/10 02:10:45;;;;;;;19.77;16.00;;;;;;;;;;2045836;29;20206;-56
2022/02/10 02:11:46;;;;;;;18.42;16.25;;;;;;;;;;2040292;29;20183;-58
2022/02/10 02:12:47;;;;;;;18.33;15.95;;;;;;;;;;2049420;29;20238;-55
2022/02/10 02:13:48;;;;;;;19.70;16.08;;;;;;;;;;2050761;29;20178;-57
2022/02/10 02:14:48;;;;;;;18.58;16.08;;;;;;;;;;2051142;28;20167;-54
2022/02/10 02:15:49;;;;;;;20.42;15.82;;;;;;;;;;2050893;28;20252;-58
2022/02/10 02:16:51;;;;;;;19.50;15.90;;;;;;;;;;2050499;28;20191;-57
2022/02/10 02:17:51;;;;;;;21.60;16.15;;;;;;;;;;2049057;28;20183;-57
2022/02/10 02:18:52;;;;;;;18.33;16.00;;;;;;;;;;2043085;28;20180;-54
2022/02/10 02:19:52;;;;;;;18.88;16.25;;;;;;;;;;2049571;29;20215;-56
2022/02/10 02:20:54;;;;;;;20.00;16.02;;;;;;;;;;2050477;28;20254;-53
2022/02/10 02:22:07;;;;;;;22.02;15.90;;;;;;;;;;2049707;28;20181;-58
2022/02/10 02:23:07;;;;;;;20.52;16.42;;;;;;;;;;2048247;28;20178;-52
2022/02/10 02:24:08;;;;;;;18.42;16.25;;;;;;;;;;2047434;29;20245;-56
2022/02/10 02:25:09;;;;;;;17.55;14.88;;;;;;;;;;2046450;29;20186;-58
2022/02/10 02:26:14;;;;;;;18.92;16.60;;;;;;;;;;2046314;29;20183;-59
2022/02/10 02:27:17;;;;;;;19.30;15.95;;;;;;;;;;2041704;28;20172;-55
2022/02/10 02:28:18;;;;;;;20.98;16.70;;;;;;;;;;2044747;29;20172;-53
2022/02/10 02:29:26;;;;;;;20.23;16.92;;;;;;;;;;2047915;28;20666;-58
2022/02/10 02:30:35;;;;;;;18.80;15.95;;;;;;;;;;2049491;28;20202;-58
2022/02/10 02:31:45;;;;;;;19.45;16.75;;;;;;;;;;2050679;28;20171;-60
2022/02/10 02:33:03;;;;;;;20.13;15.20;;;;;;;;;;2043508;28;20195;-52
2022/02/10 02:35:31;;;;;;;18.30;15.85;;;;;;;;;;2046349;28;20164;-61
2022/02/10 02:38:22;;;;;;;21.05;16.73;;;;;;;;;;2031585;29;20192;-60
2022/02/10 02:39:54;;;;;;;18.92;16.23;;;;;;;;;;2045251;29;20277;-55
2022/02/10 03:04:57;;;;;;;19.05;16.42;;;;;;;;;;2050261;28;20155;-58
2022/02/10 03:06:15;;;;;;;19.77;15.25;;;;;;;;;;2049555;28;20520;-56
2022/02/10 03:07:33;;;;;;;18.35;15.77;;;;;;;;;;2050189;29;20160;-59
2022/02/10 03:08:41;;;;;;;18.10;15.27;;;;;;;;;;2050021;28;20574;-57
2022/02/10 03:09:53;;;;;;;17.85;15.80;;;;;;;;;;2049908;28;20609;-60
2022/02/10 03:11:03;;;;;;;19.70;17.27;;;;;;;;;;2062972;23;20196;-57
2022/02/10 03:12:03;;;;;;;18.60;15.13;;;;;;;;;;2065070;28;20185;-60
2022/02/10 03:13:04;;;;;;;19.65;15.90;;;;;;;;;;2062016;28;20166;-61
2022/02/10 03:14:09;;;;;;;19.58;15.77;;;;;;;;;;2061403;28;20205;-61
2022/02/10 03:15:20;;;;;;;18.48;16.35;;;;;;;;;;2063438;28;20156;-61
2022/02/10 03:16:52;;;;;;;21.45;16.00;;;;;;;;;;2061182;28;20749;-60
2022/02/10 04:12:09;;;;;;;19.95;16.75;;;;;;;;;;2055886;28;20185;-59
2022/02/10 04:14:48;;;;;;;18.50;16.65;;;;;;;;;;2054535;28;20173;-56
2022/02/10 04:16:01;;;;;;;21.40;17.08;;;;;;;;;;2064163;28;20244;-56
2022/02/10 04:17:44;;;;;;;23.30;16.98;;;;;;;;;;2056230;28;20182;-54
2022/02/10 04:22:02;;;;;;;21.02;16.15;;;;;;;;;;2053645;28;20226;-56
2022/02/10 04:24:15;;;;;;;22.05;16.65;;;;;;;;;;2057008;28;20162;-51
2022/02/10 04:28:02;;;;;;;22.38;16.77;;;;;;;;;;2057505;28;20186;-55
2022/02/10 04:29:14;;;;;;;22.80;16.73;;;;;;;;;;2049911;28;20190;-56
2022/02/10 04:42:12;;;;;;;20.40;17.30;;;;;;;;;;2054891;28;20201;-59
2022/02/10 04:56:21;;;;;;;20.15;17.20;;;;;;;;;;2050782;28;20179;-57
2022/02/10 05:08:31;;;;;;;19.63;16.85;;;;;;;;;;2055623;28;20581;-58
2022/02/10 05:16:34;;;;;;;23.85;18.60;;;;;;;;;;2055454;28;20698;-60
2022/02/10 05:23:56;;;;;;;23.65;17.45;;;;;;;;;;2055086;28;20619;-61
2022/02/10 05:34:39;;;;;;;26.90;19.00;;;;;;;;;;2051781;28;20202;-62
2022/02/10 05:35:52;;;;;;;24.80;18.77;;;;;;;;;;2052749;28;20257;-59
2022/02/10 05:36:53;;;;;;;21.98;18.67;;;;;;;;;;2055811;28;20233;-53
2022/02/10 05:38:04;;;;;;;21.83;18.38;;;;;;;;;;2052152;28;20289;-55
2022/02/10 05:40:17;;;;;;;22.63;18.45;;;;;;;;;;2055556;28;20178;-61
2022/02/10 05:43:12;;;;;;;23.75;18.75;;;;;;;;;;2054724;28;20170;-59
2022/02/10 05:44:22;;;;;;;28.05;19.50;;;;;;;;;;2056104;28;20182;-61
2022/02/10 05:46:37;;;;;;;25.17;18.27;;;;;;;;;;2055287;28;20171;-58
2022/02/10 05:48:12;;;;;;;26.27;18.92;;;;;;;;;;2056543;28;20186;-61
2022/02/10 05:53:26;;;;;;;28.02;19.08;;;;;;;;;;2056358;28;20233;-60
2022/02/10 05:55:41;;;;;;;24.67;19.65;;;;;;;;;;2055531;28;20269;-59
2022/02/10 05:57:59;;;;;;;26.77;18.70;;;;;;;;;;2056643;28;20181;-52
2022/02/10 06:43:44;;;;;;;29.30;21.80;;;;;;;;;;2052541;28;20262;-59
2022/02/10 06:46:00;;;;;;;27.98;19.90;;;;;;;;;;2057682;28;20170;-59
2022/02/10 06:54:43;;;;;;;27.90;21.23;;;;;;;;;;2057643;28;20170;-60
2022/02/10 07:52:42;;;;;;;26.58;22.30;;;;;;;;;;2044974;28;20194;-64
2022/02/10 07:54:33;;;;;;;29.13;22.52;;;;;;;;;;2053066;28;20182;-61
2022/02/10 07:57:36;;;;;;;32.08;23.42;;;;;;;;;;2056811;28;20633;-62
2022/02/10 08:00:57;;;;;;;27.50;22.27;;;;;;;;;;2052139;28;20207;-63
2022/02/10 08:29:00;;;;;;;29.00;23.27;;;;;;;;;;2052628;28;20258;-60
2022/02/10 08:51:37;;;;;;;44.70;31.25;;;;;;;;;;2057954;28;20175;-61
2022/02/10 08:53:37;;;;;;;48.67;31.48;;;;;;;;;;2058083;28;20566;-60
2022/02/10 09:07:47;;;;;;;48.45;34.20;;;;;;;;;;2051494;28;20640;-62
2022/02/10 09:13:27;;;;;;;45.50;30.00;;;;;;;;;;2065031;23;20349;-55
2022/02/10 09:14:39;;;;;;;32.88;23.20;;;;;;;;;;2038866;29;20183;-56
2022/02/10 12:35:37;;;;;;;7.85;4.20;;;;;;;;;;2057370;28;20174;-60
2022/02/10 12:38:20;;;;;;;5.32;3.97;;;;;;;;;;2049347;29;20186;-59
2022/02/10 12:40:06;;;;;;;4.03;3.70;;;;;;;;;;2056965;28;20289;-61
2022/02/10 13:23:26;;;;;;;6.00;3.33;;;;;;;;;;2049128;29;20171;-60
2022/02/10 13:25:47;;;;;;;5.30;3.03;;;;;;;;;;2049275;28;20250;-61
2022/02/10 13:48:39;;;;;;;5.32;3.30;;;;;;;;;;2054103;28;20229;-62
2022/02/10 14:13:46;;;;;;;5.55;4.40;;;;;;;;;;2049393;28;20623;-60
2022/02/10 14:14:52;;;;;;;5.97;3.92;;;;;;;;;;2049085;28;20151;-60
2022/02/10 14:17:15;;;;;;;6.32;3.65;;;;;;;;;;2055598;28;20174;-60
2022/02/10 14:19:29;;;;;;;6.07;3.90;;;;;;;;;;2047867;28;20191;-56
2022/02/10 14:20:55;;;;;;;7.05;4.30;;;;;;;;;;2048846;29;20614;-61
2022/02/10 14:22:11;;;;;;;7.95;3.70;;;;;;;;;;2049028;28;20197;-60
2022/02/10 14:25:41;;;;;;;10.00;3.95;;;;;;;;;;2050622;29;20198;-59
2022/02/10 14:26:46;;;;;;;7.97;4.07;;;;;;;;;;2050232;28;20155;-59
2022/02/10 14:27:46;;;;;;;6.22;4.20;;;;;;;;;;2050514;28;20143;-60
2022/02/10 14:28:47;;;;;;;7.70;3.90;;;;;;;;;;2049933;28;20266;-61
2022/02/10 14:29:47;;;;;;;5.97;4.05;;;;;;;;;;2050623;28;20735;-59
2022/02/10 14:30:50;;;;;;;9.32;4.30;;;;;;;;;;2050515;28;20175;-61
2022/02/10 14:31:53;;;;;;;5.55;4.43;;;;;;;;;;2050741;28;20187;-61
2022/02/10 14:32:57;;;;;;;6.38;3.95;;;;;;;;;;2051343;28;20193;-62
2022/02/10 14:33:58;;;;;;;7.75;3.90;;;;;;;;;;2050259;28;20171;-60
2022/02/10 14:35:09;;;;;;;6.18;4.10;;;;;;;;;;2049998;28;20234;-60
2022/02/10 14:36:16;;;;;;;5.13;4.53;;;;;;;;;;2050474;28;20159;-60
2022/02/10 14:39:56;;;;;;;5.53;3.55;;;;;;;;;;2049990;29;20543;-60
2022/02/10 15:13:54;;;;;;;5.82;4.40;;;;;;;;;;2049948;28;20175;-60
2022/02/10 15:31:51;;;;;;;7.70;4.10;;;;;;;;;;2050507;28;20267;-62
2022/02/10 15:35:47;;;;;;;7.55;4.15;;;;;;;;;;2050232;29;20285;-60
2022/02/10 15:46:49;;;;;;;7.70;4.43;;;;;;;;;;2050364;29;20226;-63
2022/02/10 15:52:57;;;;;;;6.25;4.32;;;;;;;;;;2048879;28;20682;-61
2022/02/10 16:11:06;;;;;;;7.47;4.88;;;;;;;;;;2052158;29;20179;-62
2022/02/10 16:14:50;;;;;;;7.10;5.00;;;;;;;;;;2049935;28;20175;-59
2022/02/10 16:17:05;;;;;;;7.90;3.90;;;;;;;;;;2055088;28;20212;-60
2022/02/10 16:18:08;;;;;;;8.80;5.07;;;;;;;;;;2051692;28;20257;-60
2022/02/10 16:19:09;;;;;;;5.93;4.60;;;;;;;;;;2055491;28;20186;-60
2022/02/10 16:20:16;;;;;;;7.00;4.65;;;;;;;;;;2057163;28;20198;-55
2022/02/10 16:21:26;;;;;;;7.63;4.70;;;;;;;;;;2057081;28;20171;-60
2022/02/10 16:22:36;;;;;;;5.30;4.75;;;;;;;;;;2057653;28;20306;-60
2022/02/10 16:23:36;;;;;;;12.32;5.15;;;;;;;;;;2058000;28;20154;-58
2022/02/10 16:24:48;;;;;;;8.40;4.72;;;;;;;;;;2057683;28;20163;-60
2022/02/10 16:25:58;;;;;;;8.77;4.78;;;;;;;;;;2057736;28;20578;-56
2022/02/10 16:27:10;;;;;;;6.93;4.35;;;;;;;;;;2057633;28;20251;-58
2022/02/10 16:28:26;;;;;;;5.28;4.38;;;;;;;;;;2057543;28;20213;-60
2022/02/10 16:29:28;;;;;;;7.40;4.82;;;;;;;;;;2057404;28;20176;-58
2022/02/10 16:30:28;;;;;;;10.00;5.13;;;;;;;;;;2057784;28;20174;-57
2022/02/10 16:31:29;;;;;;;8.68;5.30;;;;;;;;;;2058041;28;20299;-55
2022/02/10 16:32:29;;;;;;;10.23;4.28;;;;;;;;;;2057755;28;20253;-56
2022/02/10 16:33:31;;;;;;;6.78;4.88;;;;;;;;;;2057296;28;20249;-61
2022/02/10 16:34:32;;;;;;;5.07;4.45;;;;;;;;;;2056881;28;20193;-60
2022/02/10 16:35:32;;;;;;;6.07;4.65;;;;;;;;;;2053781;28;20182;-59
2022/02/10 16:36:32;;;;;;;6.35;4.43;;;;;;;;;;2057655;28;20185;-59
2022/02/10 16:37:36;;;;;;;8.25;4.70;;;;;;;;;;2053905;28;20183;-60
2022/02/10 16:38:37;;;;;;;8.68;4.10;;;;;;;;;;2051539;28;20175;-59
2022/02/10 16:39:37;;;;;;;7.50;4.75;;;;;;;;;;2054896;28;20643;-61
2022/02/10 16:40:39;;;;;;;9.00;4.85;;;;;;;;;;2049293;29;20706;-61
2022/02/10 16:41:39;;;;;;;10.80;5.05;;;;;;;;;;2051660;29;20179;-58
2022/02/10 16:42:39;;;;;;;6.80;5.18;;;;;;;;;;2053765;28;20195;-58
2022/02/10 16:43:40;;;;;;;7.93;5.03;;;;;;;;;;2054678;28;20193;-59
2022/02/10 16:44:41;;;;;;;9.32;5.28;;;;;;;;;;2058973;28;20261;-55
2022/02/10 16:45:42;;;;;;;9.95;5.50;;;;;;;;;;2053516;28;20195;-58
2022/02/10 16:46:42;;;;;;;8.25;4.45;;;;;;;;;;2053046;28;20703;-60
2022/02/10 16:47:42;;;;;;;8.98;5.05;;;;;;;;;;2053023;28;20190;-57
2022/02/10 16:48:43;;;;;;;8.30;5.40;;;;;;;;;;2052953;28;20184;-60
2022/02/10 16:49:49;;;;;;;6.60;4.95;;;;;;;;;;2053728;28;20163;-58
2022/02/10 16:50:50;;;;;;;9.07;5.38;;;;;;;;;;2053379;28;20188;-56
2022/02/10 16:51:50;;;;;;;10.40;4.80;;;;;;;;;;2053143;28;20214;-58
2022/02/10 16:52:57;;;;;;;9.50;5.22;;;;;;;;;;2053399;29;20643;-56
2022/02/10 16:54:05;;;;;;;9.68;5.50;;;;;;;;;;2053981;28;20219;-60
2022/02/10 16:56:33;;;;;;;6.45;4.70;;;;;;;;;;2053388;29;20159;-55
2022/02/10 17:02:08;;;;;;;6.53;4.63;;;;;;;;;;2052694;28;20659;-57
2022/02/10 17:04:43;;;;;;;8.88;4.88;;;;;;;;;;2052221;29;20183;-55
2022/02/10 17:16:13;;;;;;;6.10;4.30;;;;;;;;;;2059181;28;20511;-58
2022/02/10 17:18:04;;;;;;;6.28;3.67;;;;;;;;;;2052211;28;20663;-56
2022/02/10 17:19:15;;;;;;;6.80;3.90;;;;;;;;;;2050899;28;20171;-59
2022/02/10 17:25:09;;;;;;;4.43;3.97;;;;;;;;;;2049342;28;20557;-59
2022/02/10 17:25:36;;;;;;;5.55;3.83;;;;;;;;;;2057346;28;20174;-62
2022/02/10 17:27:04;;;;;;;4.50;3.42;;;;;;;;;;2054499;28;20225;-62
2022/02/10 17:28:06;;;;;;;6.43;3.80;;;;;;;;;;2056871;28;20179;-63
2022/02/10 17:29:24;;;;;;;7.22;4.35;;;;;;;;;;2056623;28;20302;-60
2022/02/10 17:34:13;;;;;;;8.77;5.47;;;;;;;;;;2031794;29;20216;-61
2022/02/10 17:35:33;;;;;;;5.32;4.40;;;;;;;;;;2040202;29;20800;-60
2022/02/10 17:36:42;;;;;;;7.38;4.95;;;;;;;;;;2032786;29;20176;-63
2022/02/10 17:42:08;;;;;;;6.65;4.47;;;;;;;;;;2048156;29;20194;-60
2022/02/10 17:45:50;;;;;;;4.93;4.53;;;;;;;;;;2048371;29;20206;-58
2022/02/10 17:51:22;;;;;;;5.87;4.47;;;;;;;;;;2048567;28;20158;-62
2022/02/10 17:52:16;;;;;;;7.60;4.90;;;;;;;;;;2054030;28;20208;-61
2022/02/10 17:53:26;;;;;;;5.13;4.63;;;;;;;;;;2056347;28;20227;-59
2022/02/10 17:54:26;;;;;;;6.80;4.40;;;;;;;;;;2048963;28;20211;-61
2022/02/10 17:55:27;;;;;;;6.53;5.00;;;;;;;;;;2051141;28;20221;-61
2022/02/10 17:56:28;;;;;;;4.83;4.43;;;;;;;;;;2051925;28;20293;-60
2022/02/10 17:57:28;;;;;;;6.60;5.13;;;;;;;;;;2055477;28;20257;-61
2022/02/10 17:58:28;;;;;;;5.00;4.50;;;;;;;;;;2048584;28;20238;-60
2022/02/10 17:59:28;;;;;;;5.27;4.77;;;;;;;;;;2048310;28;20646;-60
2022/02/10 18:00:29;;;;;;;10.67;5.90;;;;;;;;;;2050353;28;20193;-59
2022/02/10 18:01:29;;;;;;;6.60;5.37;;;;;;;;;;2051148;28;20663;-57
2022/02/10 18:02:29;;;;;;;5.37;4.80;;;;;;;;;;2071028;23;20195;-52
2022/02/10 18:03:30;;;;;;;5.63;5.00;;;;;;;;;;2056327;28;20815;-52
2022/02/10 18:04:30;;;;;;;6.23;5.67;;;;;;;;;;2059268;28;20174;-53
2022/02/10 18:06:54;;;;;;;5.50;5.00;;;;;;;;;;2065671;28;20178;-56
2022/02/10 18:07:57;;;;;;;7.00;5.80;;;;;;;;;;2060567;28;20185;-54
2022/02/10 18:09:24;;;;;;;6.73;5.70;;;;;;;;;;2060733;28;20178;-56
2022/02/10 18:14:16;;;;;;;10.37;6.00;;;;;;;;;;2051652;28;20238;-54
2022/02/10 18:15:26;;;;;;;7.20;6.07;;;;;;;;;;2057564;28;20186;-56
2022/02/10 18:16:35;;;;;;;7.33;6.73;;;;;;;;;;2058299;28;20169;-52
2022/02/10 18:17:40;;;;;;;10.10;6.33;;;;;;;;;;2057919;28;20215;-52
2022/02/10 18:18:49;;;;;;;6.77;6.10;;;;;;;;;;2058841;28;20655;-54
2022/02/10 18:19:54;;;;;;;8.80;6.53;;;;;;;;;;2056748;28;20159;-57
2022/02/10 18:21:06;;;;;;;8.83;6.13;;;;;;;;;;2050120;28;20167;-56
2022/02/10 18:22:35;;;;;;;7.50;6.80;;;;;;;;;;2050755;28;20187;-55
2022/02/10 18:23:59;;;;;;;7.23;6.53;;;;;;;;;;2050322;28;20181;-54
2022/02/10 18:25:09;;;;;;;7.37;6.67;;;;;;;;;;2050419;29;20238;-54
2022/02/10 18:26:14;;;;;;;13.57;7.50;;;;;;;;;;2050523;28;20152;-55
2022/02/10 18:27:26;;;;;;;8.10;6.40;;;;;;;;;;2050422;28;20714;-58
2022/02/10 18:28:36;;;;;;;7.73;6.77;;;;;;;;;;2050611;28;20163;-56
2022/02/10 18:33:54;;;;;;;7.90;7.10;;;;;;;;;;2050308;29;20151;-54
2022/02/10 19:03:43;;;;;;;11.43;9.97;;;;;;;;;;2046910;28;20195;-57
2022/02/10 19:06:57;;;;;;;15.50;9.73;;;;;;;;;;2044012;28;20239;-54
2022/02/10 19:08:07;;;;;;;12.50;8.67;;;;;;;;;;2051102;28;20167;-54
2022/02/10 19:09:12;;;;;;;9.90;8.90;;;;;;;;;;2047562;28;20182;-53
2022/02/10 19:10:14;;;;;;;12.13;9.37;;;;;;;;;;2048483;28;20179;-51
2022/02/10 19:11:16;;;;;;;13.13;9.30;;;;;;;;;;2044744;28;20192;-52
2022/02/10 19:12:24;;;;;;;12.73;9.60;;;;;;;;;;2049406;28;20194;-54
2022/02/10 19:13:24;;;;;;;10.23;9.23;;;;;;;;;;2050410;28;20190;-49
2022/02/10 19:14:25;;;;;;;11.10;9.00;;;;;;;;;;2049657;28;20183;-55
2022/02/10 19:15:33;;;;;;;12.20;8.77;;;;;;;;;;2057018;28;20174;-57
2022/02/10 19:16:33;;;;;;;10.80;8.03;;;;;;;;;;2052019;28;20250;-56
2022/02/10 19:17:34;;;;;;;11.43;8.17;;;;;;;;;;2042337;29;20194;-51
2022/02/10 19:18:35;;;;;;;9.07;8.00;;;;;;;;;;2030929;28;20208;-55
2022/02/10 19:19:35;;;;;;;10.03;7.73;;;;;;;;;;2048567;29;20199;-58
2022/02/10 19:20:37;;;;;;;10.57;7.63;;;;;;;;;;2053042;28;20210;-56
2022/02/10 19:21:38;;;;;;;11.30;7.93;;;;;;;;;;2058478;28;20162;-57
2022/02/10 19:22:40;;;;;;;8.83;7.27;;;;;;;;;;2055425;28;20190;-54
2022/02/10 19:23:41;;;;;;;11.80;7.50;;;;;;;;;;2033429;29;20227;-55
2022/02/10 19:24:41;;;;;;;7.43;6.67;;;;;;;;;;2036273;29;20255;-51
2022/02/10 19:25:42;;;;;;;9.23;8.10;;;;;;;;;;2040177;29;20178;-56
2022/02/10 19:26:42;;;;;;;9.30;7.53;;;;;;;;;;2046275;29;20267;-58
2022/02/10 19:27:45;;;;;;;9.57;7.47;;;;;;;;;;2046588;28;20186;-56
2022/02/10 19:28:46;;;;;;;10.77;8.00;;;;;;;;;;2058368;28;20174;-55
2022/02/10 19:29:46;;;;;;;13.73;8.37;;;;;;;;;;2057702;28;20205;-56
2022/02/10 19:30:48;;;;;;;8.50;7.10;;;;;;;;;;2057792;28;20174;-60
2022/02/10 19:31:51;;;;;;;10.50;7.47;;;;;;;;;;2058501;28;20206;-53
2022/02/10 19:32:58;;;;;;;11.03;8.53;;;;;;;;;;2058399;28;20222;-55
2022/02/10 19:33:58;;;;;;;9.90;8.10;;;;;;;;;;2057991;28;20265;-59
2022/02/10 19:34:59;;;;;;;10.20;9.00;;;;;;;;;;2057742;28;20682;-57
2022/02/10 19:36:01;;;;;;;8.63;7.87;;;;;;;;;;2057623;28;20174;-50
2022/02/10 19:37:01;;;;;;;9.97;8.97;;;;;;;;;;2058064;28;20265;-59
2022/02/10 19:38:04;;;;;;;11.33;8.90;;;;;;;;;;2058037;28;20183;-51
2022/02/10 19:39:05;;;;;;;15.40;8.27;;;;;;;;;;2057836;28;20201;-51
2022/02/10 19:40:06;;;;;;;10.90;8.23;;;;;;;;;;2057939;28;20284;-56
2022/02/10 19:41:06;;;;;;;10.53;8.67;;;;;;;;;;2058263;28;20543;-52
2022/02/10 19:42:08;;;;;;;9.70;8.77;;;;;;;;;;2058051;28;20178;-56
2022/02/10 19:43:09;;;;;;;8.97;8.13;;;;;;;;;;2058063;28;20650;-59
2022/02/10 19:44:12;;;;;;;9.73;8.73;;;;;;;;;;2058139;28;20178;-54
2022/02/10 19:45:12;;;;;;;12.43;9.67;;;;;;;;;;2058018;28;20174;-57
2022/02/10 19:46:12;;;;;;;10.30;9.23;;;;;;;;;;2057953;28;20169;-58
2022/02/10 19:47:13;;;;;;;15.50;11.07;;;;;;;;;;2052040;28;20274;-56
2022/02/10 19:48:14;;;;;;;12.27;9.03;;;;;;;;;;2048025;28;20750;-58
2022/02/10 19:49:22;;;;;;;12.77;10.23;;;;;;;;;;2048009;28;20651;-54
2022/02/10 19:50:30;;;;;;;11.43;10.23;;;;;;;;;;2034250;28;20172;-55
2022/02/10 19:51:31;;;;;;;11.23;10.13;;;;;;;;;;2047153;28;20612;-53
2022/02/10 19:52:32;;;;;;;10.67;9.67;;;;;;;;;;2055673;28;20194;-55
2022/02/10 19:53:34;;;;;;;12.13;10.87;;;;;;;;;;2036033;29;20180;-56
2022/02/10 19:54:39;;;;;;;12.03;10.77;;;;;;;;;;2048804;28;20179;-52
2022/02/10 19:55:44;;;;;;;14.30;10.40;;;;;;;;;;2046416;28;20166;-59
2022/02/10 19:56:44;;;;;;;14.53;9.97;;;;;;;;;;2051814;28;20234;-57
2022/02/10 19:57:44;;;;;;;14.03;9.93;;;;;;;;;;2049502;28;20230;-61
2022/02/10 19:58:45;;;;;;;10.50;9.33;;;;;;;;;;2051299;28;20616;-52
2022/02/10 19:59:45;;;;;;;11.10;9.63;;;;;;;;;;2053449;28;20273;-57
2022/02/10 20:00:47;;;;;;;10.70;9.57;;;;;;;;;;2049127;28;20179;-57
2022/02/10 20:01:49;;;;;;;13.90;9.90;;;;;;;;;;2050017;28;20532;-50
2022/02/10 20:02:50;;;;;;;11.83;9.70;;;;;;;;;;2049293;28;20209;-56
2022/02/10 20:03:50;;;;;;;9.73;8.70;;;;;;;;;;2053164;28;20171;-55
2022/02/10 20:04:51;;;;;;;14.70;9.07;;;;;;;;;;2051075;28;20197;-56
2022/02/10 20:05:51;;;;;;;13.80;9.47;;;;;;;;;;2045624;28;20538;-55
2022/02/10 20:06:52;;;;;;;10.17;8.90;;;;;;;;;;2048390;28;20187;-56
2022/02/10 20:07:53;;;;;;;10.10;9.10;;;;;;;;;;2046943;28;20214;-54
2022/02/10 20:08:53;;;;;;;10.93;9.77;;;;;;;;;;2049869;28;20189;-56
2022/02/10 20:09:53;;;;;;;10.93;8.70;;;;;;;;;;2052713;28;20175;-51
2022/02/10 20:10:54;;;;;;;10.50;8.63;;;;;;;;;;2049916;28;20178;-55
2022/02/10 20:11:55;;;;;;;13.03;7.80;;;;;;;;;;2045518;28;20185;-56
2022/02/10 20:12:56;;;;;;;9.00;8.07;;;;;;;;;;2049024;28;20900;-51
2022/02/10 20:13:56;;;;;;;8.27;7.47;;;;;;;;;;2052723;28;20252;-52
2022/02/10 20:14:56;;;;;;;10.40;7.47;;;;;;;;;;2053402;28;20319;-51
2022/02/10 20:16:00;;;;;;;10.90;7.97;;;;;;;;;;2050205;28;20604;-57
2022/02/10 20:17:01;;;;;;;7.83;7.00;;;;;;;;;;2048069;28;20210;-52
2022/02/10 20:18:02;;;;;;;8.13;7.33;;;;;;;;;;2046858;28;20179;-57
2022/02/10 20:19:05;;;;;;;8.70;6.97;;;;;;;;;;2044289;28;20880;-52
2022/02/10 20:20:05;;;;;;;13.53;7.83;;;;;;;;;;2054859;28;20216;-57
2022/02/10 20:21:08;;;;;;;9.47;7.80;;;;;;;;;;2051794;28;20550;-52
2022/02/10 20:22:12;;;;;;;8.50;7.30;;;;;;;;;;2054579;28;20209;-51
2022/02/10 20:23:13;;;;;;;8.70;7.70;;;;;;;;;;2056066;28;20696;-56
2022/02/10 20:24:13;;;;;;;8.60;7.80;;;;;;;;;;2048936;28;20226;-57
2022/02/10 20:25:15;;;;;;;11.20;7.67;;;;;;;;;;2048516;28;20186;-53
2022/02/10 20:26:15;;;;;;;10.23;7.60;;;;;;;;;;2047097;29;20231;-55
2022/02/10 20:27:15;;;;;;;10.97;8.20;;;;;;;;;;2041140;29;20300;-54
2022/02/10 20:28:19;;;;;;;8.90;7.37;;;;;;;;;;2048126;28;20242;-56
2022/02/10 20:29:19;;;;;;;9.27;8.27;;;;;;;;;;2047798;28;20558;-54
2022/02/10 20:30:20;;;;;;;9.37;7.63;;;;;;;;;;2056444;28;20193;-53
2022/02/10 20:31:21;;;;;;;10.40;7.60;;;;;;;;;;2048428;28;20208;-57
2022/02/10 20:32:21;;;;;;;9.20;8.27;;;;;;;;;;2056747;28;20792;-53
2022/02/10 20:33:24;;;;;;;11.10;8.17;;;;;;;;;;2047639;28;20221;-55
2022/02/10 20:34:26;;;;;;;12.37;7.57;;;;;;;;;;2033111;29;20191;-53
2022/02/10 20:35:26;;;;;;;11.67;8.70;;;;;;;;;;2037793;29;20187;-59
2022/02/10 20:36:27;;;;;;;10.80;8.53;;;;;;;;;;2040871;28;20258;-55
2022/02/10 20:37:28;;;;;;;8.77;7.93;;;;;;;;;;2047371;28;20644;-51
2022/02/10 20:38:30;;;;;;;11.43;8.40;;;;;;;;;;2055175;28;20186;-57
2022/02/10 20:39:30;;;;;;;12.27;9.37;;;;;;;;;;2037055;29;20172;-58
2022/02/10 20:40:34;;;;;;;13.60;9.00;;;;;;;;;;2041213;28;20749;-58
2022/02/10 20:41:36;;;;;;;14.03;9.67;;;;;;;;;;2047293;28;20184;-58
2022/02/10 20:42:36;;;;;;;13.67;9.13;;;;;;;;;;2054532;28;20261;-54
2022/02/10 20:43:37;;;;;;;8.57;7.63;;;;;;;;;;2050064;28;20186;-54
2022/02/10 20:44:42;;;;;;;10.30;9.00;;;;;;;;;;2054682;28;20175;-52
2022/02/10 20:45:43;;;;;;;8.87;7.97;;;;;;;;;;2047074;28;20200;-50
2022/02/10 20:46:45;;;;;;;11.07;8.07;;;;;;;;;;2054573;28;20211;-55
2022/02/10 20:47:45;;;;;;;9.93;8.00;;;;;;;;;;2048236;28;20179;-59
2022/02/10 20:48:45;;;;;;;10.27;7.37;;;;;;;;;;2052699;28;20197;-55
2022/02/10 20:49:46;;;;;;;9.37;8.20;;;;;;;;;;2047712;28;20173;-52
2022/02/10 20:50:51;;;;;;;11.43;7.43;;;;;;;;;;2048391;28;20817;-54
2022/02/10 20:51:52;;;;;;;10.63;8.40;;;;;;;;;;2052352;28;20560;-56
2022/02/10 20:52:52;;;;;;;11.47;7.60;;;;;;;;;;2052774;28;20190;-51
2022/02/10 20:53:52;;;;;;;11.60;7.50;;;;;;;;;;2052349;28;20211;-51
2022/02/10 20:54:53;;;;;;;15.80;8.43;;;;;;;;;;2053622;28;20182;-54
2022/02/10 20:55:54;;;;;;;10.07;7.97;;;;;;;;;;2052307;28;20233;-57
2022/02/10 20:56:54;;;;;;;9.03;7.37;;;;;;;;;;2053137;28;20185;-56
2022/02/10 20:57:55;;;;;;;14.03;8.13;;;;;;;;;;2048834;28;20183;-53
2022/02/10 20:58:58;;;;;;;10.33;7.90;;;;;;;;;;2049193;28;20189;-54
2022/02/10 20:59:59;;;;;;;14.10;8.23;;;;;;;;;;2051439;28;20183;-52
2022/02/10 21:01:00;;;;;;;13.20;7.73;;;;;;;;;;2051198;28;20178;-55
2022/02/10 21:02:08;;;;;;;11.50;7.90;;;;;;;;;;2048844;28;20534;-53
2022/02/10 21:03:09;;;;;;;10.47;8.20;;;;;;;;;;2053949;28;20746;-53
2022/02/10 21:04:10;;;;;;;12.17;8.13;;;;;;;;;;2041080;28;20848;-53